TAF KGPI
KGPI 090520Z 0906/1006 09005KT P6SM SCT100 FM091000 19011KT P6SM VCSH BKN050 FM092000 22012G20KT P6SM -SHSN OVC040=
METAR KGPI
WC KGPI
WS KGPI
WV KGPI